sensor_id;sensor_type;location;lat;lon;timestamp;temperature;humidity
29855;DHT22;16733;48.738;9.106;2022-12-18T00:01:45;-6.80;99.90
29855;DHT22;16733;48.738;9.106;2022-12-18T00:04:21;-6.80;99.90
29855;DHT22;16733;48.738;9.106;2022-12-18T00:06:47;-6.70;99.90
29855;DHT22;16733;48.738;9.106;2022-12-18T00:09:13;-6.70;99.90
29855;DHT22;16733;48.738;9.106;2022-12-18T00:11:38;-6.70;99.90
29855;DHT22;16733;48.738;9.106;2022-12-18T00:14:04;-6.70;99.90
29855;DHT22;16733;48.738;9.106;2022-12-18T00:16:29;-6.80;99.90
29855;DHT22;16733;48.738;9.106;2022-12-18T00:18:58;-6.80;99.90
29855;DHT22;16733;48.738;9.106;2022-12-18T00:21:25;-6.80;99.90
29855;DHT22;16733;48.738;9.106;2022-12-18T00:23:51;-6.80;99.90
29855;DHT22;16733;48.738;9.106;2022-12-18T00:26:22;-6.80;99.90
29855;DHT22;16733;48.738;9.106;2022-12-18T00:28:48;-6.80;99.90
29855;DHT22;16733;48.738;9.106;2022-12-18T00:31:20;-6.80;99.90
29855;DHT22;16733;48.738;9.106;2022-12-18T00:33:47;-6.80;99.90
29855;DHT22;16733;48.738;9.106;2022-12-18T00:36:15;-6.80;99.90
29855;DHT22;16733;48.738;9.106;2022-12-18T00:38:41;-6.80;99.90
29855;DHT22;16733;48.738;9.106;2022-12-18T00:41:10;-6.80;99.90
29855;DHT22;16733;48.738;9.106;2022-12-18T00:43:36;-6.80;99.90
29855;DHT22;16733;48.738;9.106;2022-12-18T00:46:02;-6.70;99.90
29855;DHT22;16733;48.738;9.106;2022-12-18T00:48:28;-6.80;99.90
29855;DHT22;16733;48.738;9.106;2022-12-18T00:50:54;-6.80;99.90
29855;DHT22;16733;48.738;9.106;2022-12-18T00:53:19;-6.80;99.90
29855;DHT22;16733;48.738;9.106;2022-12-18T00:55:46;-6.80;99.90
29855;DHT22;16733;48.738;9.106;2022-12-18T00:58:12;-6.80;99.90
29855;DHT22;16733;48.738;9.106;2022-12-18T01:00:38;-6.80;99.90
29855;DHT22;16733;48.738;9.106;2022-12-18T01:03:05;-6.80;99.90
29855;DHT22;16733;48.738;9.106;2022-12-18T01:05:30;-6.80;99.90
29855;DHT22;16733;48.738;9.106;2022-12-18T01:07:56;-6.80;99.90
29855;DHT22;16733;48.738;9.106;2022-12-18T01:10:23;-6.80;99.90
29855;DHT22;16733;48.738;9.106;2022-12-18T01:12:48;-6.80;99.90
29855;DHT22;16733;48.738;9.106;2022-12-18T01:15:15;-6.80;99.90
29855;DHT22;16733;48.738;9.106;2022-12-18T01:17:41;-6.80;99.90
29855;DHT22;16733;48.738;9.106;2022-12-18T01:20:07;-6.80;99.90
29855;DHT22;16733;48.738;9.106;2022-12-18T01:22:34;-6.80;99.90
29855;DHT22;16733;48.738;9.106;2022-12-18T01:24:59;-6.90;99.90
29855;DHT22;16733;48.738;9.106;2022-12-18T01:27:25;-6.90;99.90
29855;DHT22;16733;48.738;9.106;2022-12-18T01:29:51;-6.90;99.90
29855;DHT22;16733;48.738;9.106;2022-12-18T01:32:16;-6.90;99.90
29855;DHT22;16733;48.738;9.106;2022-12-18T01:34:42;-7.00;99.60
29855;DHT22;16733;48.738;9.106;2022-12-18T01:37:07;-7.00;99.50
29855;DHT22;16733;48.738;9.106;2022-12-18T01:39:33;-7.10;99.50
29855;DHT22;16733;48.738;9.106;2022-12-18T01:42:02;-7.10;99.60
29855;DHT22;16733;48.738;9.106;2022-12-18T01:44:54;-7.10;99.80
29855;DHT22;16733;48.738;9.106;2022-12-18T01:50:24;-7.10;99.90
29855;DHT22;16733;48.738;9.106;2022-12-18T01:55:24;-7.10;99.80
29855;DHT22;16733;48.738;9.106;2022-12-18T01:57:54;-7.10;99.90
29855;DHT22;16733;48.738;9.106;2022-12-18T02:00:21;-7.10;99.80
29855;DHT22;16733;48.738;9.106;2022-12-18T02:02:48;-7.10;99.90
29855;DHT22;16733;48.738;9.106;2022-12-18T02:05:40;-7.10;99.90
29855;DHT22;16733;48.738;9.106;2022-12-18T02:13:53;-7.00;99.90
29855;DHT22;16733;48.738;9.106;2022-12-18T02:22:07;-6.90;99.90
29855;DHT22;16733;48.738;9.106;2022-12-18T02:24:51;-6.90;99.90
29855;DHT22;16733;48.738;9.106;2022-12-18T02:27:19;-6.90;99.90
29855;DHT22;16733;48.738;9.106;2022-12-18T02:29:51;-6.90;99.60
29855;DHT22;16733;48.738;9.106;2022-12-18T02:32:36;-6.90;99.80
29855;DHT22;16733;48.738;9.106;2022-12-18T02:35:06;-7.00;99.70
29855;DHT22;16733;48.738;9.106;2022-12-18T02:37:34;-7.00;99.70
29855;DHT22;16733;48.738;9.106;2022-12-18T02:40:02;-7.00;99.50
29855;DHT22;16733;48.738;9.106;2022-12-18T02:42:32;-7.00;99.40
29855;DHT22;16733;48.738;9.106;2022-12-18T02:44:58;-7.10;99.40
29855;DHT22;16733;48.738;9.106;2022-12-18T02:47:27;-7.10;99.50
29855;DHT22;16733;48.738;9.106;2022-12-18T02:49:57;-7.10;99.50
29855;DHT22;16733;48.738;9.106;2022-12-18T02:55:26;-7.10;99.70
29855;DHT22;16733;48.738;9.106;2022-12-18T02:57:58;-7.00;99.90
29855;DHT22;16733;48.738;9.106;2022-12-18T03:06:25;-7.00;99.50
29855;DHT22;16733;48.738;9.106;2022-12-18T03:08:56;-7.10;99.30
29855;DHT22;16733;48.738;9.106;2022-12-18T03:11:26;-7.10;99.40
29855;DHT22;16733;48.738;9.106;2022-12-18T03:14:14;-7.10;99.40
29855;DHT22;16733;48.738;9.106;2022-12-18T03:16:41;-7.10;99.50
29855;DHT22;16733;48.738;9.106;2022-12-18T03:19:18;-7.10;99.50
29855;DHT22;16733;48.738;9.106;2022-12-18T03:21:54;-7.10;99.30
29855;DHT22;16733;48.738;9.106;2022-12-18T03:24:21;-7.20;99.30
29855;DHT22;16733;48.738;9.106;2022-12-18T03:26:52;-7.20;99.40
29855;DHT22;16733;48.738;9.106;2022-12-18T03:29:27;-7.20;99.50
29855;DHT22;16733;48.738;9.106;2022-12-18T03:31:58;-7.20;99.50
29855;DHT22;16733;48.738;9.106;2022-12-18T03:34:30;-7.20;99.50
29855;DHT22;16733;48.738;9.106;2022-12-18T03:36:56;-7.20;99.50
29855;DHT22;16733;48.738;9.106;2022-12-18T03:39:24;-7.20;99.50
29855;DHT22;16733;48.738;9.106;2022-12-18T03:41:59;-7.20;99.40
29855;DHT22;16733;48.738;9.106;2022-12-18T03:45:02;-7.20;99.50
29855;DHT22;16733;48.738;9.106;2022-12-18T03:47:58;-7.20;99.50
29855;DHT22;16733;48.738;9.106;2022-12-18T03:53:20;-7.30;98.90
29855;DHT22;16733;48.738;9.106;2022-12-18T03:55:48;-7.40;98.70
29855;DHT22;16733;48.738;9.106;2022-12-18T03:58:18;-7.40;98.70
29855;DHT22;16733;48.738;9.106;2022-12-18T04:00:45;-7.40;99.00
29855;DHT22;16733;48.738;9.106;2022-12-18T04:03:14;-7.40;99.10
29855;DHT22;16733;48.738;9.106;2022-12-18T04:05:42;-7.40;99.00
29855;DHT22;16733;48.738;9.106;2022-12-18T04:08:08;-7.40;98.80
29855;DHT22;16733;48.738;9.106;2022-12-18T04:10:34;-7.50;98.50
29855;DHT22;16733;48.738;9.106;2022-12-18T04:13:00;-7.50;98.50
29855;DHT22;16733;48.738;9.106;2022-12-18T04:15:25;-7.60;98.70
29855;DHT22;16733;48.738;9.106;2022-12-18T04:17:51;-7.60;98.90
29855;DHT22;16733;48.738;9.106;2022-12-18T04:20:17;-7.60;98.80
29855;DHT22;16733;48.738;9.106;2022-12-18T04:22:43;-7.60;98.80
29855;DHT22;16733;48.738;9.106;2022-12-18T04:25:12;-7.60;98.90
29855;DHT22;16733;48.738;9.106;2022-12-18T04:27:38;-7.50;98.90
29855;DHT22;16733;48.738;9.106;2022-12-18T04:30:04;-7.60;98.60
29855;DHT22;16733;48.738;9.106;2022-12-18T04:32:30;-7.60;98.70
29855;DHT22;16733;48.738;9.106;2022-12-18T04:34:56;-7.70;98.70
29855;DHT22;16733;48.738;9.106;2022-12-18T04:37:21;-7.70;98.80
29855;DHT22;16733;48.738;9.106;2022-12-18T04:39:47;-7.60;98.90
29855;DHT22;16733;48.738;9.106;2022-12-18T04:42:12;-7.60;98.90
29855;DHT22;16733;48.738;9.106;2022-12-18T04:44:38;-7.70;98.70
29855;DHT22;16733;48.738;9.106;2022-12-18T04:47:04;-7.70;98.60
29855;DHT22;16733;48.738;9.106;2022-12-18T04:49:29;-7.70;98.50
29855;DHT22;16733;48.738;9.106;2022-12-18T04:51:55;-7.80;98.40
29855;DHT22;16733;48.738;9.106;2022-12-18T04:54:20;-7.80;98.30
29855;DHT22;16733;48.738;9.106;2022-12-18T04:56:46;-7.90;98.30
29855;DHT22;16733;48.738;9.106;2022-12-18T04:59:12;-7.90;98.30
29855;DHT22;16733;48.738;9.106;2022-12-18T05:01:37;-8.00;98.30
29855;DHT22;16733;48.738;9.106;2022-12-18T05:04:03;-8.00;98.20
29855;DHT22;16733;48.738;9.106;2022-12-18T05:06:28;-8.10;98.20
29855;DHT22;16733;48.738;9.106;2022-12-18T05:08:54;-8.10;98.20
29855;DHT22;16733;48.738;9.106;2022-12-18T05:11:20;-8.10;98.30
29855;DHT22;16733;48.738;9.106;2022-12-18T05:13:46;-8.10;98.30
29855;DHT22;16733;48.738;9.106;2022-12-18T05:16:12;-8.10;98.40
29855;DHT22;16733;48.738;9.106;2022-12-18T05:18:38;-8.20;98.50
29855;DHT22;16733;48.738;9.106;2022-12-18T05:21:04;-8.20;98.60
29855;DHT22;16733;48.738;9.106;2022-12-18T05:23:32;-8.10;98.70
29855;DHT22;16733;48.738;9.106;2022-12-18T05:26:00;-8.10;98.70
29855;DHT22;16733;48.738;9.106;2022-12-18T05:28:27;-8.10;98.60
29855;DHT22;16733;48.738;9.106;2022-12-18T05:30:56;-8.10;98.50
29855;DHT22;16733;48.738;9.106;2022-12-18T05:33:24;-8.10;98.60
29855;DHT22;16733;48.738;9.106;2022-12-18T05:35:54;-8.10;98.70
29855;DHT22;16733;48.738;9.106;2022-12-18T05:38:22;-8.10;98.80
29855;DHT22;16733;48.738;9.106;2022-12-18T05:40:48;-8.00;99.00
29855;DHT22;16733;48.738;9.106;2022-12-18T05:43:14;-8.00;99.00
29855;DHT22;16733;48.738;9.106;2022-12-18T05:45:40;-8.00;99.00
29855;DHT22;16733;48.738;9.106;2022-12-18T05:48:06;-7.90;99.00
29855;DHT22;16733;48.738;9.106;2022-12-18T05:50:39;-7.90;98.90
29855;DHT22;16733;48.738;9.106;2022-12-18T05:53:05;-7.90;98.70
29855;DHT22;16733;48.738;9.106;2022-12-18T05:55:35;-8.00;98.60
29855;DHT22;16733;48.738;9.106;2022-12-18T05:58:02;-8.00;98.70
29855;DHT22;16733;48.738;9.106;2022-12-18T06:00:28;-8.00;99.10
29855;DHT22;16733;48.738;9.106;2022-12-18T06:02:53;-8.00;99.20
29855;DHT22;16733;48.738;9.106;2022-12-18T06:05:19;-8.00;99.00
29855;DHT22;16733;48.738;9.106;2022-12-18T06:07:44;-8.00;98.30
29855;DHT22;16733;48.738;9.106;2022-12-18T06:10:10;-8.10;98.00
29855;DHT22;16733;48.738;9.106;2022-12-18T06:12:37;-8.10;98.10
29855;DHT22;16733;48.738;9.106;2022-12-18T06:15:03;-8.10;98.10
29855;DHT22;16733;48.738;9.106;2022-12-18T06:17:32;-8.10;98.30
29855;DHT22;16733;48.738;9.106;2022-12-18T06:19:58;-8.10;98.20
29855;DHT22;16733;48.738;9.106;2022-12-18T06:22:24;-8.10;97.90
29855;DHT22;16733;48.738;9.106;2022-12-18T06:24:49;-8.20;97.80
29855;DHT22;16733;48.738;9.106;2022-12-18T06:27:15;-8.30;97.70
29855;DHT22;16733;48.738;9.106;2022-12-18T06:29:41;-8.30;97.80
29855;DHT22;16733;48.738;9.106;2022-12-18T06:32:07;-8.40;97.80
29855;DHT22;16733;48.738;9.106;2022-12-18T06:34:33;-8.40;97.80
29855;DHT22;16733;48.738;9.106;2022-12-18T06:36:59;-8.40;98.10
29855;DHT22;16733;48.738;9.106;2022-12-18T06:39:26;-8.40;97.90
29855;DHT22;16733;48.738;9.106;2022-12-18T06:41:52;-8.40;97.90
29855;DHT22;16733;48.738;9.106;2022-12-18T06:44:18;-8.40;97.90
29855;DHT22;16733;48.738;9.106;2022-12-18T06:46:43;-8.40;97.80
29855;DHT22;16733;48.738;9.106;2022-12-18T06:49:09;-8.40;97.70
29855;DHT22;16733;48.738;9.106;2022-12-18T06:51:35;-8.40;97.70
29855;DHT22;16733;48.738;9.106;2022-12-18T06:54:01;-8.40;98.00
29855;DHT22;16733;48.738;9.106;2022-12-18T06:56:26;-8.40;98.30
29855;DHT22;16733;48.738;9.106;2022-12-18T06:58:52;-8.40;98.50
29855;DHT22;16733;48.738;9.106;2022-12-18T07:01:18;-8.30;98.80
29855;DHT22;16733;48.738;9.106;2022-12-18T07:03:44;-8.20;98.90
29855;DHT22;16733;48.738;9.106;2022-12-18T07:06:15;-8.20;99.00
29855;DHT22;16733;48.738;9.106;2022-12-18T07:08:41;-8.10;99.10
29855;DHT22;16733;48.738;9.106;2022-12-18T07:11:07;-8.00;99.10
29855;DHT22;16733;48.738;9.106;2022-12-18T07:13:33;-8.00;98.90
29855;DHT22;16733;48.738;9.106;2022-12-18T07:16:13;-8.00;98.80
29855;DHT22;16733;48.738;9.106;2022-12-18T07:18:38;-8.00;98.90
29855;DHT22;16733;48.738;9.106;2022-12-18T07:21:06;-7.90;99.00
29855;DHT22;16733;48.738;9.106;2022-12-18T07:23:34;-7.90;99.10
29855;DHT22;16733;48.738;9.106;2022-12-18T07:26:08;-7.90;99.00
29855;DHT22;16733;48.738;9.106;2022-12-18T07:28:34;-7.80;99.40
29855;DHT22;16733;48.738;9.106;2022-12-18T07:31:04;-7.80;99.10
29855;DHT22;16733;48.738;9.106;2022-12-18T07:33:32;-7.80;99.30
29855;DHT22;16733;48.738;9.106;2022-12-18T07:35:59;-7.70;99.30
29855;DHT22;16733;48.738;9.106;2022-12-18T07:38:25;-7.70;99.40
29855;DHT22;16733;48.738;9.106;2022-12-18T07:40:50;-7.60;99.60
29855;DHT22;16733;48.738;9.106;2022-12-18T07:43:16;-7.60;99.60
29855;DHT22;16733;48.738;9.106;2022-12-18T07:45:42;-7.50;99.70
29855;DHT22;16733;48.738;9.106;2022-12-18T07:48:08;-7.50;99.90
29855;DHT22;16733;48.738;9.106;2022-12-18T07:50:33;-7.40;99.90
29855;DHT22;16733;48.738;9.106;2022-12-18T07:52:59;-7.30;99.90
29855;DHT22;16733;48.738;9.106;2022-12-18T07:55:29;-7.20;99.90
29855;DHT22;16733;48.738;9.106;2022-12-18T07:57:55;-7.20;99.90
29855;DHT22;16733;48.738;9.106;2022-12-18T08:00:20;-7.10;99.90
29855;DHT22;16733;48.738;9.106;2022-12-18T08:02:46;-7.00;99.90
29855;DHT22;16733;48.738;9.106;2022-12-18T08:05:12;-6.90;99.90
29855;DHT22;16733;48.738;9.106;2022-12-18T08:07:38;-6.90;99.90
29855;DHT22;16733;48.738;9.106;2022-12-18T08:10:05;-6.80;99.90
29855;DHT22;16733;48.738;9.106;2022-12-18T08:12:30;-6.80;99.90
29855;DHT22;16733;48.738;9.106;2022-12-18T08:14:56;-6.70;99.90
29855;DHT22;16733;48.738;9.106;2022-12-18T08:17:21;-6.70;99.90
29855;DHT22;16733;48.738;9.106;2022-12-18T08:19:47;-6.60;99.90
29855;DHT22;16733;48.738;9.106;2022-12-18T08:22:13;-6.60;99.90
29855;DHT22;16733;48.738;9.106;2022-12-18T08:24:38;-6.50;99.90
29855;DHT22;16733;48.738;9.106;2022-12-18T08:27:04;-6.50;99.90
29855;DHT22;16733;48.738;9.106;2022-12-18T08:29:29;-6.40;99.90
29855;DHT22;16733;48.738;9.106;2022-12-18T08:31:55;-6.40;99.90
29855;DHT22;16733;48.738;9.106;2022-12-18T08:34:21;-6.30;99.90
29855;DHT22;16733;48.738;9.106;2022-12-18T08:36:47;-6.20;99.90
29855;DHT22;16733;48.738;9.106;2022-12-18T08:39:12;-6.20;99.90
29855;DHT22;16733;48.738;9.106;2022-12-18T08:41:38;-6.10;99.90
29855;DHT22;16733;48.738;9.106;2022-12-18T08:44:03;-6.10;99.90
29855;DHT22;16733;48.738;9.106;2022-12-18T08:46:48;-6.00;99.90
29855;DHT22;16733;48.738;9.106;2022-12-18T08:49:13;-5.90;99.90
29855;DHT22;16733;48.738;9.106;2022-12-18T08:51:39;-5.90;99.90
29855;DHT22;16733;48.738;9.106;2022-12-18T08:54:06;-5.80;99.90
29855;DHT22;16733;48.738;9.106;2022-12-18T08:56:31;-5.80;99.90
29855;DHT22;16733;48.738;9.106;2022-12-18T08:58:58;-5.70;99.90
29855;DHT22;16733;48.738;9.106;2022-12-18T09:01:24;-5.60;99.90
29855;DHT22;16733;48.738;9.106;2022-12-18T09:03:50;-5.60;99.90
29855;DHT22;16733;48.738;9.106;2022-12-18T09:06:18;-5.50;99.90
29855;DHT22;16733;48.738;9.106;2022-12-18T09:08:44;-5.40;99.90
29855;DHT22;16733;48.738;9.106;2022-12-18T09:11:15;-5.30;99.90
29855;DHT22;16733;48.738;9.106;2022-12-18T09:13:40;-5.30;99.90
29855;DHT22;16733;48.738;9.106;2022-12-18T09:16:06;-5.20;99.90
29855;DHT22;16733;48.738;9.106;2022-12-18T09:18:32;-5.10;99.90
29855;DHT22;16733;48.738;9.106;2022-12-18T09:20:57;-5.00;99.90
29855;DHT22;16733;48.738;9.106;2022-12-18T09:23:23;-5.00;99.90
29855;DHT22;16733;48.738;9.106;2022-12-18T09:25:49;-4.90;99.90
29855;DHT22;16733;48.738;9.106;2022-12-18T09:28:16;-4.80;99.90
29855;DHT22;16733;48.738;9.106;2022-12-18T09:30:45;-4.80;99.90
29855;DHT22;16733;48.738;9.106;2022-12-18T09:33:11;-4.70;99.90
29855;DHT22;16733;48.738;9.106;2022-12-18T09:35:40;-4.70;99.90
29855;DHT22;16733;48.738;9.106;2022-12-18T09:38:06;-4.60;99.90
29855;DHT22;16733;48.738;9.106;2022-12-18T09:40:45;-4.50;99.90
29855;DHT22;16733;48.738;9.106;2022-12-18T09:43:28;-4.40;99.90
29855;DHT22;16733;48.738;9.106;2022-12-18T09:45:59;-4.30;99.90
29855;DHT22;16733;48.738;9.106;2022-12-18T09:48:34;-4.20;99.90
29855;DHT22;16733;48.738;9.106;2022-12-18T09:51:17;-4.10;99.90
29855;DHT22;16733;48.738;9.106;2022-12-18T09:53:50;-4.00;99.90
29855;DHT22;16733;48.738;9.106;2022-12-18T09:56:18;-4.00;99.90
29855;DHT22;16733;48.738;9.106;2022-12-18T09:59:02;-3.90;99.90
29855;DHT22;16733;48.738;9.106;2022-12-18T10:01:29;-3.90;99.90
29855;DHT22;16733;48.738;9.106;2022-12-18T10:03:56;-3.80;99.90
29855;DHT22;16733;48.738;9.106;2022-12-18T10:09:58;-3.80;99.90
29855;DHT22;16733;48.738;9.106;2022-12-18T10:12:32;-3.70;99.90
29855;DHT22;16733;48.738;9.106;2022-12-18T10:15:23;-3.60;99.90
29855;DHT22;16733;48.738;9.106;2022-12-18T10:20:54;-3.40;99.90
29855;DHT22;16733;48.738;9.106;2022-12-18T10:23:54;-3.40;99.90
29855;DHT22;16733;48.738;9.106;2022-12-18T10:26:22;-3.40;99.90
29855;DHT22;16733;48.738;9.106;2022-12-18T10:28:48;-3.50;99.90
29855;DHT22;16733;48.738;9.106;2022-12-18T10:31:20;-3.40;99.90
29855;DHT22;16733;48.738;9.106;2022-12-18T10:33:46;-3.40;99.90
29855;DHT22;16733;48.738;9.106;2022-12-18T10:36:12;-3.30;99.90
29855;DHT22;16733;48.738;9.106;2022-12-18T10:38:38;-3.20;99.90
29855;DHT22;16733;48.738;9.106;2022-12-18T10:43:32;-3.00;99.90
29855;DHT22;16733;48.738;9.106;2022-12-18T10:51:00;-2.80;99.90
29855;DHT22;16733;48.738;9.106;2022-12-18T10:53:30;-2.80;99.90
29855;DHT22;16733;48.738;9.106;2022-12-18T10:55:58;-2.80;99.90
29855;DHT22;16733;48.738;9.106;2022-12-18T10:58:27;-2.70;99.90
29855;DHT22;16733;48.738;9.106;2022-12-18T11:01:10;-2.70;99.90
29855;DHT22;16733;48.738;9.106;2022-12-18T11:03:37;-2.70;99.90
29855;DHT22;16733;48.738;9.106;2022-12-18T11:06:13;-2.60;99.90
29855;DHT22;16733;48.738;9.106;2022-12-18T11:08:40;-2.50;99.90
29855;DHT22;16733;48.738;9.106;2022-12-18T11:11:19;-2.50;99.90
29855;DHT22;16733;48.738;9.106;2022-12-18T11:14:04;-2.40;99.90
29855;DHT22;16733;48.738;9.106;2022-12-18T11:16:36;-2.30;99.90
29855;DHT22;16733;48.738;9.106;2022-12-18T11:21:46;-2.20;99.90
29855;DHT22;16733;48.738;9.106;2022-12-18T11:24:32;-2.10;99.90
29855;DHT22;16733;48.738;9.106;2022-12-18T11:27:02;-2.00;99.90
29855;DHT22;16733;48.738;9.106;2022-12-18T11:29:39;-2.00;99.90
29855;DHT22;16733;48.738;9.106;2022-12-18T11:37:59;-1.90;99.90
29855;DHT22;16733;48.738;9.106;2022-12-18T11:40:36;-1.80;99.90
29855;DHT22;16733;48.738;9.106;2022-12-18T11:43:10;-1.80;99.90
29855;DHT22;16733;48.738;9.106;2022-12-18T11:45:56;-1.70;99.90
29855;DHT22;16733;48.738;9.106;2022-12-18T11:48:34;-1.60;99.90
29855;DHT22;16733;48.738;9.106;2022-12-18T11:51:05;-1.40;99.90
29855;DHT22;16733;48.738;9.106;2022-12-18T11:53:35;-1.30;99.90
29855;DHT22;16733;48.738;9.106;2022-12-18T12:07:37;-1.00;99.90
29855;DHT22;16733;48.738;9.106;2022-12-18T12:10:08;-1.00;99.90
29855;DHT22;16733;48.738;9.106;2022-12-18T12:23:56;-1.10;99.90
29855;DHT22;16733;48.738;9.106;2022-12-18T12:31:57;-1.20;99.90
29855;DHT22;16733;48.738;9.106;2022-12-18T12:39:56;-1.30;99.90
29855;DHT22;16733;48.738;9.106;2022-12-18T12:42:35;-1.30;99.90
29855;DHT22;16733;48.738;9.106;2022-12-18T12:45:54;-1.30;99.90
29855;DHT22;16733;48.738;9.106;2022-12-18T12:48:38;-1.20;99.90
29855;DHT22;16733;48.738;9.106;2022-12-18T12:51:21;-1.20;99.90
29855;DHT22;16733;48.738;9.106;2022-12-18T12:53:47;-1.20;99.90
29855;DHT22;16733;48.738;9.106;2022-12-18T12:56:16;-1.30;99.90
29855;DHT22;16733;48.738;9.106;2022-12-18T13:01:53;-1.30;99.90
29855;DHT22;16733;48.738;9.106;2022-12-18T13:04:46;-1.30;99.90
29855;DHT22;16733;48.738;9.106;2022-12-18T13:07:27;-1.20;99.90
29855;DHT22;16733;48.738;9.106;2022-12-18T13:17:48;-1.10;99.90
29855;DHT22;16733;48.738;9.106;2022-12-18T13:20:15;-1.10;99.90
29855;DHT22;16733;48.738;9.106;2022-12-18T13:22:46;-1.10;99.90
29855;DHT22;16733;48.738;9.106;2022-12-18T13:25:30;-1.10;99.90
29855;DHT22;16733;48.738;9.106;2022-12-18T13:38:33;-1.20;99.90
29855;DHT22;16733;48.738;9.106;2022-12-18T13:41:25;-1.20;99.90
29855;DHT22;16733;48.738;9.106;2022-12-18T13:43:55;-1.20;99.90
29855;DHT22;16733;48.738;9.106;2022-12-18T13:46:28;-1.20;99.90
29855;DHT22;16733;48.738;9.106;2022-12-18T13:51:21;-1.20;99.90
29855;DHT22;16733;48.738;9.106;2022-12-18T13:56:48;-1.40;99.90
29855;DHT22;16733;48.738;9.106;2022-12-18T13:59:22;-1.40;99.90
29855;DHT22;16733;48.738;9.106;2022-12-18T14:01:52;-1.50;99.90
29855;DHT22;16733;48.738;9.106;2022-12-18T14:04:19;-1.50;99.90
29855;DHT22;16733;48.738;9.106;2022-12-18T14:06:46;-1.50;99.90
29855;DHT22;16733;48.738;9.106;2022-12-18T14:09:19;-1.50;99.90
29855;DHT22;16733;48.738;9.106;2022-12-18T14:11:47;-1.60;99.90
29855;DHT22;16733;48.738;9.106;2022-12-18T14:14:17;-1.60;99.90
29855;DHT22;16733;48.738;9.106;2022-12-18T14:16:43;-1.60;99.90
29855;DHT22;16733;48.738;9.106;2022-12-18T14:19:16;-1.70;99.90
29855;DHT22;16733;48.738;9.106;2022-12-18T14:21:47;-1.70;99.90
29855;DHT22;16733;48.738;9.106;2022-12-18T14:26:39;-1.80;99.90
29855;DHT22;16733;48.738;9.106;2022-12-18T14:29:30;-1.90;99.90
29855;DHT22;16733;48.738;9.106;2022-12-18T14:32:16;-1.90;99.90
29855;DHT22;16733;48.738;9.106;2022-12-18T14:34:51;-1.90;99.90
29855;DHT22;16733;48.738;9.106;2022-12-18T14:37:24;-1.90;99.90
29855;DHT22;16733;48.738;9.106;2022-12-18T14:40:04;-1.90;99.90
29855;DHT22;16733;48.738;9.106;2022-12-18T14:42:31;-2.00;99.90
29855;DHT22;16733;48.738;9.106;2022-12-18T14:48:00;-2.00;99.90
29855;DHT22;16733;48.738;9.106;2022-12-18T14:50:26;-2.00;99.90
29855;DHT22;16733;48.738;9.106;2022-12-18T14:52:52;-2.00;99.90
29855;DHT22;16733;48.738;9.106;2022-12-18T14:55:18;-2.10;99.90
29855;DHT22;16733;48.738;9.106;2022-12-18T14:57:45;-2.10;99.90
29855;DHT22;16733;48.738;9.106;2022-12-18T15:00:22;-2.20;99.90
29855;DHT22;16733;48.738;9.106;2022-12-18T15:02:56;-2.20;99.90
29855;DHT22;16733;48.738;9.106;2022-12-18T15:05:30;-2.30;99.90
29855;DHT22;16733;48.738;9.106;2022-12-18T15:07:58;-2.30;99.90
29855;DHT22;16733;48.738;9.106;2022-12-18T15:10:26;-2.30;99.90
29855;DHT22;16733;48.738;9.106;2022-12-18T15:18:05;-2.50;99.90
29855;DHT22;16733;48.738;9.106;2022-12-18T15:26:00;-2.60;99.90
29855;DHT22;16733;48.738;9.106;2022-12-18T15:28:53;-2.60;99.90
29855;DHT22;16733;48.738;9.106;2022-12-18T15:31:34;-2.60;99.90
29855;DHT22;16733;48.738;9.106;2022-12-18T15:34:20;-2.60;99.90
29855;DHT22;16733;48.738;9.106;2022-12-18T15:36:46;-2.60;99.90
29855;DHT22;16733;48.738;9.106;2022-12-18T15:39:12;-2.70;99.90
29855;DHT22;16733;48.738;9.106;2022-12-18T15:41:38;-2.70;99.90
29855;DHT22;16733;48.738;9.106;2022-12-18T15:44:22;-2.70;99.90
29855;DHT22;16733;48.738;9.106;2022-12-18T15:46:49;-2.70;99.90
29855;DHT22;16733;48.738;9.106;2022-12-18T15:49:14;-2.80;99.90
29855;DHT22;16733;48.738;9.106;2022-12-18T15:51:40;-2.90;99.90
29855;DHT22;16733;48.738;9.106;2022-12-18T15:54:10;-2.90;99.90
29855;DHT22;16733;48.738;9.106;2022-12-18T15:56:37;-2.90;99.90
29855;DHT22;16733;48.738;9.106;2022-12-18T15:59:21;-2.90;99.90
29855;DHT22;16733;48.738;9.106;2022-12-18T16:01:48;-3.00;99.90
29855;DHT22;16733;48.738;9.106;2022-12-18T16:04:16;-3.00;99.90
29855;DHT22;16733;48.738;9.106;2022-12-18T16:06:42;-3.00;99.90
29855;DHT22;16733;48.738;9.106;2022-12-18T16:09:08;-3.00;99.90
29855;DHT22;16733;48.738;9.106;2022-12-18T16:11:36;-3.10;99.90
29855;DHT22;16733;48.738;9.106;2022-12-18T16:14:25;-3.10;99.90
29855;DHT22;16733;48.738;9.106;2022-12-18T16:17:00;-3.10;99.90
29855;DHT22;16733;48.738;9.106;2022-12-18T16:19:26;-3.10;99.90
29855;DHT22;16733;48.738;9.106;2022-12-18T16:21:54;-3.10;99.90
29855;DHT22;16733;48.738;9.106;2022-12-18T16:24:28;-3.10;99.90
29855;DHT22;16733;48.738;9.106;2022-12-18T16:26:56;-3.10;99.90
29855;DHT22;16733;48.738;9.106;2022-12-18T16:29:23;-3.10;99.90
29855;DHT22;16733;48.738;9.106;2022-12-18T16:31:53;-3.10;99.90
29855;DHT22;16733;48.738;9.106;2022-12-18T16:34:24;-3.10;99.90
29855;DHT22;16733;48.738;9.106;2022-12-18T16:36:53;-3.10;99.90
29855;DHT22;16733;48.738;9.106;2022-12-18T16:39:19;-3.10;99.90
29855;DHT22;16733;48.738;9.106;2022-12-18T16:41:45;-3.10;99.90
29855;DHT22;16733;48.738;9.106;2022-12-18T16:44:10;-3.10;99.90
29855;DHT22;16733;48.738;9.106;2022-12-18T16:46:37;-3.10;99.90
29855;DHT22;16733;48.738;9.106;2022-12-18T16:49:04;-3.10;99.90
29855;DHT22;16733;48.738;9.106;2022-12-18T16:51:30;-3.10;99.90
29855;DHT22;16733;48.738;9.106;2022-12-18T16:53:56;-3.10;99.90
29855;DHT22;16733;48.738;9.106;2022-12-18T16:56:21;-3.10;99.90
29855;DHT22;16733;48.738;9.106;2022-12-18T16:58:58;-3.00;99.90
29855;DHT22;16733;48.738;9.106;2022-12-18T17:01:25;-3.00;99.90
29855;DHT22;16733;48.738;9.106;2022-12-18T17:04:01;-3.00;99.90
29855;DHT22;16733;48.738;9.106;2022-12-18T17:06:28;-3.00;99.90
29855;DHT22;16733;48.738;9.106;2022-12-18T17:08:56;-3.00;99.90
29855;DHT22;16733;48.738;9.106;2022-12-18T17:11:23;-3.00;99.90
29855;DHT22;16733;48.738;9.106;2022-12-18T17:13:49;-2.90;99.90
29855;DHT22;16733;48.738;9.106;2022-12-18T17:16:15;-2.90;99.90
29855;DHT22;16733;48.738;9.106;2022-12-18T17:18:42;-2.90;99.90
29855;DHT22;16733;48.738;9.106;2022-12-18T17:21:08;-2.90;99.90
29855;DHT22;16733;48.738;9.106;2022-12-18T17:23:34;-2.90;99.90
29855;DHT22;16733;48.738;9.106;2022-12-18T17:26:01;-2.90;99.90
29855;DHT22;16733;48.738;9.106;2022-12-18T17:28:27;-2.80;99.90
29855;DHT22;16733;48.738;9.106;2022-12-18T17:30:54;-2.80;99.90
29855;DHT22;16733;48.738;9.106;2022-12-18T17:33:20;-2.80;99.90
29855;DHT22;16733;48.738;9.106;2022-12-18T17:35:46;-2.80;99.90
29855;DHT22;16733;48.738;9.106;2022-12-18T17:38:12;-2.80;99.90
29855;DHT22;16733;48.738;9.106;2022-12-18T17:40:38;-2.80;99.90
29855;DHT22;16733;48.738;9.106;2022-12-18T17:43:06;-2.80;99.90
29855;DHT22;16733;48.738;9.106;2022-12-18T17:45:34;-2.80;99.90
29855;DHT22;16733;48.738;9.106;2022-12-18T17:48:01;-2.80;99.90
29855;DHT22;16733;48.738;9.106;2022-12-18T17:50:26;-2.80;99.90
29855;DHT22;16733;48.738;9.106;2022-12-18T17:52:55;-2.80;99.90